sensor_id;sensor_type;location;lat;lon;timestamp;P1;durP1;ratioP1;P2;durP2;ratioP2
35366;SDS011;21465;52.278;20.962;2023-07-20T00:01:25;2.65;;;1.40;;
35366;SDS011;21465;52.278;20.962;2023-07-20T00:03:50;1.73;;;0.90;;
35366;SDS011;21465;52.278;20.962;2023-07-20T00:06:25;2.65;;;1.33;;
35366;SDS011;21465;52.278;20.962;2023-07-20T00:08:55;1.30;;;1.13;;
35366;SDS011;21465;52.278;20.962;2023-07-20T00:11:25;1.13;;;1.05;;
35366;SDS011;21465;52.278;20.962;2023-07-20T00:16:17;1.98;;;1.20;;
35366;SDS011;21465;52.278;20.962;2023-07-20T00:18:43;1.80;;;1.52;;
35366;SDS011;21465;52.278;20.962;2023-07-20T00:21:08;2.05;;;1.20;;
35366;SDS011;21465;52.278;20.962;2023-07-20T00:23:34;1.17;;;1.08;;
35366;SDS011;21465;52.278;20.962;2023-07-20T00:26:00;1.85;;;1.60;;
35366;SDS011;21465;52.278;20.962;2023-07-20T00:28:26;1.40;;;1.30;;
35366;SDS011;21465;52.278;20.962;2023-07-20T00:30:52;1.80;;;1.25;;
35366;SDS011;21465;52.278;20.962;2023-07-20T00:33:18;1.30;;;1.13;;
35366;SDS011;21465;52.278;20.962;2023-07-20T00:35:45;1.80;;;1.38;;
35366;SDS011;21465;52.278;20.962;2023-07-20T00:38:10;1.58;;;1.48;;
35366;SDS011;21465;52.278;20.962;2023-07-20T00:40:40;1.55;;;1.30;;
35366;SDS011;21465;52.278;20.962;2023-07-20T00:43:06;1.17;;;1.08;;
35366;SDS011;21465;52.278;20.962;2023-07-20T00:45:33;2.50;;;1.30;;
35366;SDS011;21465;52.278;20.962;2023-07-20T00:47:59;1.40;;;1.10;;
35366;SDS011;21465;52.278;20.962;2023-07-20T00:50:26;1.48;;;1.05;;
35366;SDS011;21465;52.278;20.962;2023-07-20T00:52:54;1.58;;;1.48;;
35366;SDS011;21465;52.278;20.962;2023-07-20T00:55:21;2.95;;;1.50;;
35366;SDS011;21465;52.278;20.962;2023-07-20T00:57:47;1.23;;;1.13;;
35366;SDS011;21465;52.278;20.962;2023-07-20T01:00:13;1.52;;;1.00;;
35366;SDS011;21465;52.278;20.962;2023-07-20T01:02:39;1.48;;;1.17;;
35366;SDS011;21465;52.278;20.962;2023-07-20T01:05:05;1.33;;;1.05;;
35366;SDS011;21465;52.278;20.962;2023-07-20T01:07:35;1.30;;;1.17;;
35366;SDS011;21465;52.278;20.962;2023-07-20T01:12:35;2.08;;;1.30;;
35366;SDS011;21465;52.278;20.962;2023-07-20T01:15:07;1.63;;;1.27;;
35366;SDS011;21465;52.278;20.962;2023-07-20T01:17:36;1.08;;;1.00;;
35366;SDS011;21465;52.278;20.962;2023-07-20T01:20:02;1.58;;;1.08;;
35366;SDS011;21465;52.278;20.962;2023-07-20T01:22:34;1.80;;;1.35;;
35366;SDS011;21465;52.278;20.962;2023-07-20T01:34:02;1.67;;;1.45;;
35366;SDS011;21465;52.278;20.962;2023-07-20T01:36:30;1.55;;;1.10;;
35366;SDS011;21465;52.278;20.962;2023-07-20T01:38:59;4.32;;;1.50;;
35366;SDS011;21465;52.278;20.962;2023-07-20T01:41:25;1.48;;;1.30;;
35366;SDS011;21465;52.278;20.962;2023-07-20T01:43:51;1.73;;;1.40;;
35366;SDS011;21465;52.278;20.962;2023-07-20T01:46:17;1.75;;;1.65;;
35366;SDS011;21465;52.278;20.962;2023-07-20T01:48:42;1.77;;;1.40;;
35366;SDS011;21465;52.278;20.962;2023-07-20T01:51:08;1.13;;;1.02;;
35366;SDS011;21465;52.278;20.962;2023-07-20T01:53:34;1.25;;;1.10;;
35366;SDS011;21465;52.278;20.962;2023-07-20T01:55:59;2.00;;;1.30;;
35366;SDS011;21465;52.278;20.962;2023-07-20T01:58:25;1.35;;;1.08;;
35366;SDS011;21465;52.278;20.962;2023-07-20T02:00:51;1.48;;;1.20;;
35366;SDS011;21465;52.278;20.962;2023-07-20T02:03:17;1.45;;;1.35;;
35366;SDS011;21465;52.278;20.962;2023-07-20T02:05:42;1.77;;;1.40;;
35366;SDS011;21465;52.278;20.962;2023-07-20T02:08:08;1.35;;;1.23;;
35366;SDS011;21465;52.278;20.962;2023-07-20T02:10:35;2.08;;;1.40;;
35366;SDS011;21465;52.278;20.962;2023-07-20T02:13:01;1.90;;;1.20;;
35366;SDS011;21465;52.278;20.962;2023-07-20T02:15:26;1.85;;;1.63;;
35366;SDS011;21465;52.278;20.962;2023-07-20T02:17:53;1.38;;;1.27;;
35366;SDS011;21465;52.278;20.962;2023-07-20T02:20:19;2.05;;;1.67;;
35366;SDS011;21465;52.278;20.962;2023-07-20T02:22:45;1.92;;;1.83;;
35366;SDS011;21465;52.278;20.962;2023-07-20T02:25:11;1.35;;;1.20;;
35366;SDS011;21465;52.278;20.962;2023-07-20T02:27:36;1.65;;;1.50;;
35366;SDS011;21465;52.278;20.962;2023-07-20T02:30:03;1.50;;;1.40;;
35366;SDS011;21465;52.278;20.962;2023-07-20T02:32:30;1.60;;;1.50;;
35366;SDS011;21465;52.278;20.962;2023-07-20T02:34:56;2.05;;;1.20;;
35366;SDS011;21465;52.278;20.962;2023-07-20T02:37:21;1.88;;;1.35;;
35366;SDS011;21465;52.278;20.962;2023-07-20T02:39:47;1.77;;;1.30;;
35366;SDS011;21465;52.278;20.962;2023-07-20T02:42:13;1.67;;;1.58;;
35366;SDS011;21465;52.278;20.962;2023-07-20T02:44:39;1.73;;;1.35;;
35366;SDS011;21465;52.278;20.962;2023-07-20T02:47:05;2.30;;;1.38;;
35366;SDS011;21465;52.278;20.962;2023-07-20T02:49:31;1.38;;;1.27;;
35366;SDS011;21465;52.278;20.962;2023-07-20T02:51:57;1.40;;;1.30;;
35366;SDS011;21465;52.278;20.962;2023-07-20T02:54:22;1.40;;;1.10;;
35366;SDS011;21465;52.278;20.962;2023-07-20T02:56:48;1.40;;;1.30;;
35366;SDS011;21465;52.278;20.962;2023-07-20T02:59:14;1.33;;;1.23;;
35366;SDS011;21465;52.278;20.962;2023-07-20T03:01:39;1.10;;;1.00;;
35366;SDS011;21465;52.278;20.962;2023-07-20T03:04:07;1.40;;;1.10;;
35366;SDS011;21465;52.278;20.962;2023-07-20T03:06:35;1.83;;;1.30;;
35366;SDS011;21465;52.278;20.962;2023-07-20T03:09:02;1.52;;;1.42;;
35366;SDS011;21465;52.278;20.962;2023-07-20T03:11:28;1.30;;;1.20;;
35366;SDS011;21465;52.278;20.962;2023-07-20T03:13:54;1.27;;;1.17;;
35366;SDS011;21465;52.278;20.962;2023-07-20T03:16:24;1.33;;;1.23;;
35366;SDS011;21465;52.278;20.962;2023-07-20T03:18:50;2.22;;;1.38;;
35366;SDS011;21465;52.278;20.962;2023-07-20T03:21:17;2.00;;;1.35;;
35366;SDS011;21465;52.278;20.962;2023-07-20T03:23:43;2.97;;;1.17;;
35366;SDS011;21465;52.278;20.962;2023-07-20T03:26:09;1.55;;;1.25;;
35366;SDS011;21465;52.278;20.962;2023-07-20T03:28:35;3.00;;;1.45;;
35366;SDS011;21465;52.278;20.962;2023-07-20T03:31:01;1.60;;;1.50;;
35366;SDS011;21465;52.278;20.962;2023-07-20T03:33:27;1.48;;;1.23;;
35366;SDS011;21465;52.278;20.962;2023-07-20T03:35:54;2.08;;;1.50;;
35366;SDS011;21465;52.278;20.962;2023-07-20T03:38:20;2.45;;;1.27;;
35366;SDS011;21465;52.278;20.962;2023-07-20T03:40:53;1.40;;;1.30;;
35366;SDS011;21465;52.278;20.962;2023-07-20T03:43:20;1.58;;;1.48;;
35366;SDS011;21465;52.278;20.962;2023-07-20T03:45:46;1.65;;;1.55;;
35366;SDS011;21465;52.278;20.962;2023-07-20T03:48:17;2.10;;;1.70;;
35366;SDS011;21465;52.278;20.962;2023-07-20T03:50:44;2.22;;;2.05;;
35366;SDS011;21465;52.278;20.962;2023-07-20T03:55:40;3.20;;;2.20;;
35366;SDS011;21465;52.278;20.962;2023-07-20T03:58:16;1.50;;;1.38;;
35366;SDS011;21465;52.278;20.962;2023-07-20T04:00:46;2.70;;;1.65;;
35366;SDS011;21465;52.278;20.962;2023-07-20T04:03:13;2.30;;;2.10;;
35366;SDS011;21465;52.278;20.962;2023-07-20T04:05:39;2.25;;;2.05;;
35366;SDS011;21465;52.278;20.962;2023-07-20T04:08:04;2.95;;;2.53;;
35366;SDS011;21465;52.278;20.962;2023-07-20T04:10:30;2.08;;;1.85;;
35366;SDS011;21465;52.278;20.962;2023-07-20T04:12:56;2.95;;;2.53;;
35366;SDS011;21465;52.278;20.962;2023-07-20T04:15:21;2.95;;;2.42;;
35366;SDS011;21465;52.278;20.962;2023-07-20T04:17:47;2.40;;;2.20;;
35366;SDS011;21465;52.278;20.962;2023-07-20T04:20:13;2.75;;;2.50;;
35366;SDS011;21465;52.278;20.962;2023-07-20T04:22:39;2.70;;;2.50;;
35366;SDS011;21465;52.278;20.962;2023-07-20T04:25:04;3.42;;;2.97;;
35366;SDS011;21465;52.278;20.962;2023-07-20T04:27:30;3.97;;;2.92;;
35366;SDS011;21465;52.278;20.962;2023-07-20T04:29:57;3.67;;;2.88;;
35366;SDS011;21465;52.278;20.962;2023-07-20T04:32:25;3.63;;;3.33;;
35366;SDS011;21465;52.278;20.962;2023-07-20T04:34:51;3.55;;;3.20;;
35366;SDS011;21465;52.278;20.962;2023-07-20T04:37:17;2.92;;;2.72;;
35366;SDS011;21465;52.278;20.962;2023-07-20T04:39:43;2.90;;;2.70;;
35366;SDS011;21465;52.278;20.962;2023-07-20T04:42:09;2.67;;;2.38;;
35366;SDS011;21465;52.278;20.962;2023-07-20T04:44:34;2.80;;;2.60;;
35366;SDS011;21465;52.278;20.962;2023-07-20T04:47:00;2.72;;;2.53;;
35366;SDS011;21465;52.278;20.962;2023-07-20T04:49:26;2.33;;;2.22;;
35366;SDS011;21465;52.278;20.962;2023-07-20T04:51:52;2.60;;;2.40;;
35366;SDS011;21465;52.278;20.962;2023-07-20T04:54:17;2.25;;;2.05;;
35366;SDS011;21465;52.278;20.962;2023-07-20T04:56:44;2.75;;;2.55;;
35366;SDS011;21465;52.278;20.962;2023-07-20T05:02:14;2.40;;;2.25;;
35366;SDS011;21465;52.278;20.962;2023-07-20T05:04:42;2.70;;;2.50;;
35366;SDS011;21465;52.278;20.962;2023-07-20T05:07:07;2.58;;;2.33;;
35366;SDS011;21465;52.278;20.962;2023-07-20T05:09:35;2.38;;;2.17;;
35366;SDS011;21465;52.278;20.962;2023-07-20T05:12:01;2.05;;;1.95;;
35366;SDS011;21465;52.278;20.962;2023-07-20T05:14:27;2.58;;;2.38;;
35366;SDS011;21465;52.278;20.962;2023-07-20T05:16:53;2.53;;;2.33;;
35366;SDS011;21465;52.278;20.962;2023-07-20T05:19:18;3.35;;;2.28;;
35366;SDS011;21465;52.278;20.962;2023-07-20T05:21:47;2.35;;;2.25;;
35366;SDS011;21465;52.278;20.962;2023-07-20T05:24:12;2.28;;;2.08;;
35366;SDS011;21465;52.278;20.962;2023-07-20T05:26:38;2.47;;;2.28;;
35366;SDS011;21465;52.278;20.962;2023-07-20T05:29:04;3.25;;;2.95;;
35366;SDS011;21465;52.278;20.962;2023-07-20T05:31:30;3.25;;;2.10;;
35366;SDS011;21465;52.278;20.962;2023-07-20T05:33:57;4.72;;;2.67;;
35366;SDS011;21465;52.278;20.962;2023-07-20T05:36:26;2.85;;;2.60;;
35366;SDS011;21465;52.278;20.962;2023-07-20T05:38:54;3.25;;;2.40;;
35366;SDS011;21465;52.278;20.962;2023-07-20T05:41:20;3.47;;;2.53;;
35366;SDS011;21465;52.278;20.962;2023-07-20T05:43:47;2.85;;;2.65;;
35366;SDS011;21465;52.278;20.962;2023-07-20T05:46:19;4.63;;;2.03;;
35366;SDS011;21465;52.278;20.962;2023-07-20T05:48:47;3.13;;;2.60;;
35366;SDS011;21465;52.278;20.962;2023-07-20T05:51:14;3.05;;;2.75;;
35366;SDS011;21465;52.278;20.962;2023-07-20T05:53:43;3.72;;;2.92;;
35366;SDS011;21465;52.278;20.962;2023-07-20T05:56:19;3.45;;;3.15;;
35366;SDS011;21465;52.278;20.962;2023-07-20T05:58:48;3.10;;;2.80;;
35366;SDS011;21465;52.278;20.962;2023-07-20T06:01:18;2.58;;;2.38;;
35366;SDS011;21465;52.278;20.962;2023-07-20T06:03:47;2.67;;;2.47;;
35366;SDS011;21465;52.278;20.962;2023-07-20T06:06:16;2.58;;;2.38;;
35366;SDS011;21465;52.278;20.962;2023-07-20T06:08:48;3.20;;;3.00;;
35366;SDS011;21465;52.278;20.962;2023-07-20T06:11:16;2.92;;;2.58;;
35366;SDS011;21465;52.278;20.962;2023-07-20T06:13:42;2.70;;;2.50;;
35366;SDS011;21465;52.278;20.962;2023-07-20T06:16:10;2.75;;;2.50;;
35366;SDS011;21465;52.278;20.962;2023-07-20T06:18:35;3.45;;;3.15;;
35366;SDS011;21465;52.278;20.962;2023-07-20T06:21:02;2.88;;;2.67;;
35366;SDS011;21465;52.278;20.962;2023-07-20T06:23:31;2.72;;;2.53;;
35366;SDS011;21465;52.278;20.962;2023-07-20T06:26:00;3.47;;;2.28;;
35366;SDS011;21465;52.278;20.962;2023-07-20T06:28:27;2.90;;;2.70;;
35366;SDS011;21465;52.278;20.962;2023-07-20T06:30:54;2.50;;;2.30;;
35366;SDS011;21465;52.278;20.962;2023-07-20T06:33:24;2.53;;;2.33;;
35366;SDS011;21465;52.278;20.962;2023-07-20T06:35:50;2.70;;;2.50;;
35366;SDS011;21465;52.278;20.962;2023-07-20T06:38:20;2.55;;;2.35;;
35366;SDS011;21465;52.278;20.962;2023-07-20T06:40:46;2.50;;;2.30;;
35366;SDS011;21465;52.278;20.962;2023-07-20T06:43:18;2.85;;;2.65;;
35366;SDS011;21465;52.278;20.962;2023-07-20T06:45:44;2.42;;;2.22;;
35366;SDS011;21465;52.278;20.962;2023-07-20T06:48:13;2.85;;;2.60;;
35366;SDS011;21465;52.278;20.962;2023-07-20T06:50:43;5.85;;;5.38;;
35366;SDS011;21465;52.278;20.962;2023-07-20T06:53:11;2.58;;;2.38;;
35366;SDS011;21465;52.278;20.962;2023-07-20T06:55:47;2.50;;;2.30;;
35366;SDS011;21465;52.278;20.962;2023-07-20T06:58:13;2.45;;;2.10;;
35366;SDS011;21465;52.278;20.962;2023-07-20T07:00:41;3.28;;;2.50;;
35366;SDS011;21465;52.278;20.962;2023-07-20T07:03:07;2.88;;;2.67;;
35366;SDS011;21465;52.278;20.962;2023-07-20T07:05:36;2.60;;;2.40;;
35366;SDS011;21465;52.278;20.962;2023-07-20T07:08:03;2.95;;;2.65;;
35366;SDS011;21465;52.278;20.962;2023-07-20T07:10:35;5.53;;;3.20;;
35366;SDS011;21465;52.278;20.962;2023-07-20T07:13:01;2.90;;;2.67;;
35366;SDS011;21465;52.278;20.962;2023-07-20T07:15:29;4.70;;;2.78;;
35366;SDS011;21465;52.278;20.962;2023-07-20T07:17:55;3.20;;;2.88;;
35366;SDS011;21465;52.278;20.962;2023-07-20T07:20:22;7.53;;;2.58;;
35366;SDS011;21465;52.278;20.962;2023-07-20T07:22:49;3.03;;;2.70;;
35366;SDS011;21465;52.278;20.962;2023-07-20T07:25:16;4.05;;;2.70;;
35366;SDS011;21465;52.278;20.962;2023-07-20T07:27:44;3.10;;;2.80;;
35366;SDS011;21465;52.278;20.962;2023-07-20T07:30:10;2.38;;;2.10;;
35366;SDS011;21465;52.278;20.962;2023-07-20T07:32:40;2.78;;;2.13;;
35366;SDS011;21465;52.278;20.962;2023-07-20T07:35:07;2.90;;;2.53;;
35366;SDS011;21465;52.278;20.962;2023-07-20T07:37:32;2.65;;;2.35;;
35366;SDS011;21465;52.278;20.962;2023-07-20T07:39:58;2.85;;;2.60;;
35366;SDS011;21465;52.278;20.962;2023-07-20T07:42:23;4.03;;;2.83;;
35366;SDS011;21465;52.278;20.962;2023-07-20T07:44:49;2.40;;;2.10;;
35366;SDS011;21465;52.278;20.962;2023-07-20T07:47:17;2.50;;;2.30;;
35366;SDS011;21465;52.278;20.962;2023-07-20T07:49:43;2.20;;;1.98;;
35366;SDS011;21465;52.278;20.962;2023-07-20T07:52:09;2.63;;;2.05;;
35366;SDS011;21465;52.278;20.962;2023-07-20T07:54:35;2.45;;;2.25;;
35366;SDS011;21465;52.278;20.962;2023-07-20T07:57:02;2.63;;;2.38;;
35366;SDS011;21465;52.278;20.962;2023-07-20T07:59:31;2.42;;;2.22;;
35366;SDS011;21465;52.278;20.962;2023-07-20T08:02:01;2.97;;;2.13;;
35366;SDS011;21465;52.278;20.962;2023-07-20T08:05:05;2.88;;;2.30;;
35366;SDS011;21465;52.278;20.962;2023-07-20T08:07:37;2.30;;;2.00;;
35366;SDS011;21465;52.278;20.962;2023-07-20T08:10:23;3.00;;;2.03;;
35366;SDS011;21465;52.278;20.962;2023-07-20T08:12:51;2.05;;;1.90;;
35366;SDS011;21465;52.278;20.962;2023-07-20T08:15:26;2.58;;;2.33;;
35366;SDS011;21465;52.278;20.962;2023-07-20T08:17:52;2.97;;;2.30;;
35366;SDS011;21465;52.278;20.962;2023-07-20T08:20:28;2.30;;;2.10;;
35366;SDS011;21465;52.278;20.962;2023-07-20T08:22:56;3.55;;;2.50;;
35366;SDS011;21465;52.278;20.962;2023-07-20T08:25:32;1.98;;;1.80;;
35366;SDS011;21465;52.278;20.962;2023-07-20T08:27:58;2.63;;;2.10;;
35366;SDS011;21465;52.278;20.962;2023-07-20T08:30:37;3.45;;;2.28;;
35366;SDS011;21465;52.278;20.962;2023-07-20T08:33:18;2.65;;;2.45;;
35366;SDS011;21465;52.278;20.962;2023-07-20T08:36:39;4.57;;;2.63;;
35366;SDS011;21465;52.278;20.962;2023-07-20T08:39:11;2.38;;;2.05;;
35366;SDS011;21465;52.278;20.962;2023-07-20T08:41:37;2.75;;;2.10;;
35366;SDS011;21465;52.278;20.962;2023-07-20T08:44:06;4.55;;;2.50;;
35366;SDS011;21465;52.278;20.962;2023-07-20T08:46:35;2.25;;;2.08;;
35366;SDS011;21465;52.278;20.962;2023-07-20T08:49:07;3.85;;;2.53;;
35366;SDS011;21465;52.278;20.962;2023-07-20T08:51:35;5.82;;;2.95;;
35366;SDS011;21465;52.278;20.962;2023-07-20T08:54:14;2.70;;;2.50;;
35366;SDS011;21465;52.278;20.962;2023-07-20T08:56:41;2.25;;;2.00;;
35366;SDS011;21465;52.278;20.962;2023-07-20T08:59:16;2.28;;;2.13;;
35366;SDS011;21465;52.278;20.962;2023-07-20T09:01:42;2.30;;;2.13;;
35366;SDS011;21465;52.278;20.962;2023-07-20T09:06:49;2.63;;;2.10;;
35366;SDS011;21465;52.278;20.962;2023-07-20T09:09:23;2.70;;;2.00;;
35366;SDS011;21465;52.278;20.962;2023-07-20T09:11:56;2.13;;;1.92;;
35366;SDS011;21465;52.278;20.962;2023-07-20T09:14:22;2.47;;;2.22;;
35366;SDS011;21465;52.278;20.962;2023-07-20T09:16:55;2.20;;;2.00;;
35366;SDS011;21465;52.278;20.962;2023-07-20T09:19:21;2.58;;;2.28;;
35366;SDS011;21465;52.278;20.962;2023-07-20T09:21:48;2.40;;;2.20;;
35366;SDS011;21465;52.278;20.962;2023-07-20T09:24:29;3.13;;;2.22;;
35366;SDS011;21465;52.278;20.962;2023-07-20T09:27:02;3.13;;;2.60;;
35366;SDS011;21465;52.278;20.962;2023-07-20T09:29:56;2.40;;;2.03;;
35366;SDS011;21465;52.278;20.962;2023-07-20T09:32:21;2.60;;;2.30;;
35366;SDS011;21465;52.278;20.962;2023-07-20T09:34:47;2.90;;;2.03;;
35366;SDS011;21465;52.278;20.962;2023-07-20T09:37:19;2.88;;;2.35;;
35366;SDS011;21465;52.278;20.962;2023-07-20T09:39:46;1.98;;;1.88;;
35366;SDS011;21465;52.278;20.962;2023-07-20T09:42:13;2.45;;;1.48;;
35366;SDS011;21465;52.278;20.962;2023-07-20T09:44:39;1.60;;;1.50;;
35366;SDS011;21465;52.278;20.962;2023-07-20T09:47:05;2.20;;;1.52;;
35366;SDS011;21465;52.278;20.962;2023-07-20T09:49:32;1.58;;;1.48;;
35366;SDS011;21465;52.278;20.962;2023-07-20T09:51:58;1.42;;;1.30;;
35366;SDS011;21465;52.278;20.962;2023-07-20T09:54:26;1.40;;;1.30;;
35366;SDS011;21465;52.278;20.962;2023-07-20T09:56:54;1.60;;;1.15;;
35366;SDS011;21465;52.278;20.962;2023-07-20T09:59:21;1.40;;;1.30;;
35366;SDS011;21465;52.278;20.962;2023-07-20T10:01:47;1.30;;;1.20;;
35366;SDS011;21465;52.278;20.962;2023-07-20T10:04:14;2.50;;;1.55;;
35366;SDS011;21465;52.278;20.962;2023-07-20T10:06:43;1.33;;;1.20;;
35366;SDS011;21465;52.278;20.962;2023-07-20T10:09:12;1.05;;;0.98;;
35366;SDS011;21465;52.278;20.962;2023-07-20T10:11:43;1.40;;;1.30;;
35366;SDS011;21465;52.278;20.962;2023-07-20T10:14:11;1.30;;;1.20;;
35366;SDS011;21465;52.278;20.962;2023-07-20T10:16:39;1.17;;;1.17;;
35366;SDS011;21465;52.278;20.962;2023-07-20T10:19:24;1.73;;;1.27;;
35366;SDS011;21465;52.278;20.962;2023-07-20T10:21:56;0.85;;;0.85;;
35366;SDS011;21465;52.278;20.962;2023-07-20T10:24:29;1.83;;;0.98;;
35366;SDS011;21465;52.278;20.962;2023-07-20T10:27:04;0.88;;;0.88;;
35366;SDS011;21465;52.278;20.962;2023-07-20T10:29:33;1.90;;;1.17;;
35366;SDS011;21465;52.278;20.962;2023-07-20T10:32:04;1.13;;;0.80;;
35366;SDS011;21465;52.278;20.962;2023-07-20T10:40:29;0.68;;;0.68;;
35366;SDS011;21465;52.278;20.962;2023-07-20T10:43:05;1.05;;;1.02;;
35366;SDS011;21465;52.278;20.962;2023-07-20T10:45:41;1.00;;;1.00;;
35366;SDS011;21465;52.278;20.962;2023-07-20T10:48:23;1.10;;;1.00;;
35366;SDS011;21465;52.278;20.962;2023-07-20T10:51:11;1.27;;;1.17;;
35366;SDS011;21465;52.278;20.962;2023-07-20T10:53:40;1.00;;;1.00;;
35366;SDS011;21465;52.278;20.962;2023-07-20T10:56:07;1.10;;;1.00;;
35366;SDS011;21465;52.278;20.962;2023-07-20T10:58:37;1.27;;;1.17;;
35366;SDS011;21465;52.278;20.962;2023-07-20T11:01:11;1.05;;;0.93;;
35366;SDS011;21465;52.278;20.962;2023-07-20T11:04:00;0.95;;;0.90;;
35366;SDS011;21465;52.278;20.962;2023-07-20T11:06:32;1.40;;;1.10;;
35366;SDS011;21465;52.278;20.962;2023-07-20T11:09:04;1.00;;;0.98;;
35366;SDS011;21465;52.278;20.962;2023-07-20T11:11:54;0.80;;;0.80;;
35366;SDS011;21465;52.278;20.962;2023-07-20T11:14:40;1.27;;;1.17;;
35366;SDS011;21465;52.278;20.962;2023-07-20T11:17:14;0.90;;;0.80;;
35366;SDS011;21465;52.278;20.962;2023-07-20T11:19:47;0.93;;;0.75;;
35366;SDS011;21465;52.278;20.962;2023-07-20T11:22:16;0.80;;;0.80;;
35366;SDS011;21465;52.278;20.962;2023-07-20T11:24:43;0.90;;;0.90;;
35366;SDS011;21465;52.278;20.962;2023-07-20T11:27:09;0.80;;;0.80;;
35366;SDS011;21465;52.278;20.962;2023-07-20T11:29:35;0.90;;;0.90;;
35366;SDS011;21465;52.278;20.962;2023-07-20T11:32:06;0.77;;;0.77;;
35366;SDS011;21465;52.278;20.962;2023-07-20T11:34:33;0.70;;;0.70;;
35366;SDS011;21465;52.278;20.962;2023-07-20T11:37:00;0.88;;;0.80;;
35366;SDS011;21465;52.278;20.962;2023-07-20T11:39:27;1.25;;;0.75;;
35366;SDS011;21465;52.278;20.962;2023-07-20T11:41:54;1.10;;;0.95;;
35366;SDS011;21465;52.278;20.962;2023-07-20T11:44:25;0.80;;;0.80;;
35366;SDS011;21465;52.278;20.962;2023-07-20T11:49:34;0.80;;;0.70;;
35366;SDS011;21465;52.278;20.962;2023-07-20T11:52:01;0.80;;;0.80;;
35366;SDS011;21465;52.278;20.962;2023-07-20T11:54:27;1.10;;;0.85;;
35366;SDS011;21465;52.278;20.962;2023-07-20T11:56:54;0.68;;;0.68;;
35366;SDS011;21465;52.278;20.962;2023-07-20T11:59:21;0.93;;;0.80;;
35366;SDS011;21465;52.278;20.962;2023-07-20T12:01:47;0.60;;;0.60;;
35366;SDS011;21465;52.278;20.962;2023-07-20T12:04:16;3.13;;;0.80;;
35366;SDS011;21465;52.278;20.962;2023-07-20T12:19:07;0.75;;;0.75;;
35366;SDS011;21465;52.278;20.962;2023-07-20T12:22:08;0.75;;;0.73;;
35366;SDS011;21465;52.278;20.962;2023-07-20T12:24:40;0.65;;;0.63;;
35366;SDS011;21465;52.278;20.962;2023-07-20T12:27:06;0.88;;;0.77;;
35366;SDS011;21465;52.278;20.962;2023-07-20T12:29:32;1.23;;;0.95;;
35366;SDS011;21465;52.278;20.962;2023-07-20T12:32:07;0.70;;;0.70;;
35366;SDS011;21465;52.278;20.962;2023-07-20T12:34:35;0.63;;;0.60;;
35366;SDS011;21465;52.278;20.962;2023-07-20T12:37:04;0.57;;;0.55;;
35366;SDS011;21465;52.278;20.962;2023-07-20T12:39:36;0.73;;;0.68;;
35366;SDS011;21465;52.278;20.962;2023-07-20T12:42:14;0.60;;;0.60;;
35366;SDS011;21465;52.278;20.962;2023-07-20T12:44:43;0.50;;;0.50;;
35366;SDS011;21465;52.278;20.962;2023-07-20T12:47:15;0.50;;;0.50;;
35366;SDS011;21465;52.278;20.962;2023-07-20T12:49:44;0.77;;;0.60;;
35366;SDS011;21465;52.278;20.962;2023-07-20T12:52:13;0.50;;;0.50;;
35366;SDS011;21465;52.278;20.962;2023-07-20T12:54:39;1.00;;;0.52;;
35366;SDS011;21465;52.278;20.962;2023-07-20T12:57:05;0.80;;;0.80;;
35366;SDS011;21465;52.278;20.962;2023-07-20T12:59:31;0.93;;;0.68;;
35366;SDS011;21465;52.278;20.962;2023-07-20T13:01:57;0.55;;;0.55;;
35366;SDS011;21465;52.278;20.962;2023-07-20T13:04:29;0.60;;;0.60;;
35366;SDS011;21465;52.278;20.962;2023-07-20T13:06:57;1.42;;;0.70;;
35366;SDS011;21465;52.278;20.962;2023-07-20T13:09:26;0.95;;;0.80;;
35366;SDS011;21465;52.278;20.962;2023-07-20T13:11:52;0.70;;;0.70;;
35366;SDS011;21465;52.278;20.962;2023-07-20T13:14:21;1.05;;;0.88;;
35366;SDS011;21465;52.278;20.962;2023-07-20T13:16:48;1.50;;;0.93;;
35366;SDS011;21465;52.278;20.962;2023-07-20T13:19:29;1.33;;;0.80;;
35366;SDS011;21465;52.278;20.962;2023-07-20T13:21:55;2.55;;;0.80;;
35366;SDS011;21465;52.278;20.962;2023-07-20T13:24:21;0.70;;;0.60;;
35366;SDS011;21465;52.278;20.962;2023-07-20T13:26:47;0.80;;;0.80;;
35366;SDS011;21465;52.278;20.962;2023-07-20T13:29:12;1.02;;;0.70;;
35366;SDS011;21465;52.278;20.962;2023-07-20T13:31:44;1.08;;;0.80;;
35366;SDS011;21465;52.278;20.962;2023-07-20T13:34:13;0.68;;;0.68;;
35366;SDS011;21465;52.278;20.962;2023-07-20T13:36:50;1.50;;;0.85;;
35366;SDS011;21465;52.278;20.962;2023-07-20T13:39:16;1.20;;;0.70;;
35366;SDS011;21465;52.278;20.962;2023-07-20T13:41:42;0.75;;;0.75;;
35366;SDS011;21465;52.278;20.962;2023-07-20T13:44:11;1.30;;;1.02;;
35366;SDS011;21465;52.278;20.962;2023-07-20T13:46:36;1.67;;;0.90;;
35366;SDS011;21465;52.278;20.962;2023-07-20T13:49:02;0.80;;;0.80;;
35366;SDS011;21465;52.278;20.962;2023-07-20T13:51:28;0.98;;;0.98;;
35366;SDS011;21465;52.278;20.962;2023-07-20T13:53:56;0.98;;;0.98;;
35366;SDS011;21465;52.278;20.962;2023-07-20T13:56:23;1.45;;;1.17;;
35366;SDS011;21465;52.278;20.962;2023-07-20T13:58:50;0.80;;;0.80;;
35366;SDS011;21465;52.278;20.962;2023-07-20T14:01:25;0.93;;;0.93;;
35366;SDS011;21465;52.278;20.962;2023-07-20T14:03:53;0.73;;;0.70;;
35366;SDS011;21465;52.278;20.962;2023-07-20T14:06:22;1.00;;;1.00;;
35366;SDS011;21465;52.278;20.962;2023-07-20T14:08:48;2.42;;;1.02;;
35366;SDS011;21465;52.278;20.962;2023-07-20T14:11:17;1.33;;;0.98;;
35366;SDS011;21465;52.278;20.962;2023-07-20T14:13:43;1.00;;;0.95;;
35366;SDS011;21465;52.278;20.962;2023-07-20T14:16:09;1.17;;;0.85;;
35366;SDS011;21465;52.278;20.962;2023-07-20T14:47:19;0.55;;;0.55;;
35366;SDS011;21465;52.278;20.962;2023-07-20T14:49:45;0.60;;;0.60;;
35366;SDS011;21465;52.278;20.962;2023-07-20T14:52:11;0.60;;;0.60;;
35366;SDS011;21465;52.278;20.962;2023-07-20T14:54:38;0.40;;;0.40;;
35366;SDS011;21465;52.278;20.962;2023-07-20T14:57:03;1.35;;;0.45;;
35366;SDS011;21465;52.278;20.962;2023-07-20T14:59:30;0.47;;;0.47;;
35366;SDS011;21465;52.278;20.962;2023-07-20T15:01:59;0.80;;;0.80;;
35366;SDS011;21465;52.278;20.962;2023-07-20T15:04:25;1.05;;;0.50;;
35366;SDS011;21465;52.278;20.962;2023-07-20T15:06:53;0.88;;;0.50;;
35366;SDS011;21465;52.278;20.962;2023-07-20T15:09:20;1.15;;;0.52;;
35366;SDS011;21465;52.278;20.962;2023-07-20T15:14:19;0.33;;;0.30;;
35366;SDS011;21465;52.278;20.962;2023-07-20T15:16:45;0.40;;;0.40;;
35366;SDS011;21465;52.278;20.962;2023-07-20T15:19:11;1.23;;;0.50;;
35366;SDS011;21465;52.278;20.962;2023-07-20T15:21:38;0.70;;;0.70;;
35366;SDS011;21465;52.278;20.962;2023-07-20T15:24:06;0.65;;;0.52;;
35366;SDS011;21465;52.278;20.962;2023-07-20T15:26:32;0.47;;;0.47;;
35366;SDS011;21465;52.278;20.962;2023-07-20T15:28:58;0.65;;;0.50;;
35366;SDS011;21465;52.278;20.962;2023-07-20T15:31:24;0.55;;;0.40;;
35366;SDS011;21465;52.278;20.962;2023-07-20T15:33:51;0.40;;;0.40;;
35366;SDS011;21465;52.278;20.962;2023-07-20T15:36:18;1.55;;;0.40;;
35366;SDS011;21465;52.278;20.962;2023-07-20T15:38:44;0.75;;;0.40;;
35366;SDS011;21465;52.278;20.962;2023-07-20T15:41:10;0.68;;;0.68;;
35366;SDS011;21465;52.278;20.962;2023-07-20T15:43:36;0.70;;;0.60;;
35366;SDS011;21465;52.278;20.962;2023-07-20T15:46:25;0.50;;;0.45;;
35366;SDS011;21465;52.278;20.962;2023-07-20T15:49:13;0.73;;;0.70;;
35366;SDS011;21465;52.278;20.962;2023-07-20T15:51:41;0.75;;;0.63;;
35366;SDS011;21465;52.278;20.962;2023-07-20T15:54:09;1.15;;;0.60;;
35366;SDS011;21465;52.278;20.962;2023-07-20T15:56:36;0.90;;;0.90;;